createdAt,value
2022-10-11T00:01:47.522Z,13.77
2022-10-11T00:04:14.224Z,14.43
2022-10-11T00:06:43.387Z,15.82
2022-10-11T00:09:14.596Z,16.27
2022-10-11T00:11:41.463Z,16.45
2022-10-11T00:14:08.572Z,14.93
2022-10-11T00:16:35.375Z,12.48
2022-10-11T00:19:02.408Z,11.85
2022-10-11T00:21:30.547Z,13.98
2022-10-11T00:23:57.292Z,18.58
2022-10-11T00:26:24.018Z,12.10
2022-10-11T00:28:52.755Z,15.85
2022-10-11T00:31:19.677Z,15.18
2022-10-11T00:33:46.400Z,11.30
2022-10-11T00:36:14.656Z,18.05
2022-10-11T00:38:41.567Z,15.85
2022-10-11T00:41:08.266Z,11.05
2022-10-11T00:43:35.161Z,11.80
2022-10-11T00:46:26.601Z,14.18
2022-10-11T00:49:22.630Z,14.75
2022-10-11T00:51:59.287Z,15.77
2022-10-11T00:54:29.227Z,13.18
2022-10-11T00:57:09.928Z,12.27
2022-10-11T00:59:41.465Z,17.30
2022-10-11T01:02:10.127Z,14.82
2022-10-11T01:04:37.349Z,11.60
2022-10-11T01:07:04.449Z,16.20
2022-10-11T01:09:31.522Z,16.98
2022-10-11T01:12:02.947Z,16.25
2022-10-11T01:15:13.502Z,17.92
2022-10-11T01:17:52.183Z,11.05
2022-10-11T01:20:36.940Z,16.38
2022-10-11T01:23:43.672Z,13.85
2022-10-11T01:26:27.146Z,17.83
2022-10-11T01:29:19.416Z,15.85
2022-10-11T01:32:22.939Z,11.43
2022-10-11T01:35:03.233Z,12.68
2022-10-11T01:37:34.845Z,15.82
2022-10-11T01:42:32.738Z,16.10
2022-10-11T01:45:00.019Z,11.98
2022-10-11T01:47:27.357Z,14.98
2022-10-11T01:49:59.848Z,16.25
2022-10-11T01:52:33.843Z,17.10
2022-10-11T01:55:29.383Z,15.20
2022-10-11T01:58:15.195Z,16.23
2022-10-11T02:01:08.926Z,17.80
2022-10-11T02:03:48.009Z,24.08
2022-10-11T02:06:47.808Z,15.82
2022-10-11T02:09:20.312Z,13.57
2022-10-11T02:11:47.044Z,14.15
2022-10-11T02:14:22.376Z,14.98
2022-10-11T02:16:54.867Z,12.27
2022-10-11T02:19:27.830Z,12.27
2022-10-11T02:22:01.111Z,18.48
2022-10-11T02:24:31.978Z,14.50
2022-10-11T02:27:00.013Z,18.40
2022-10-11T02:29:29.786Z,19.80
2022-10-11T02:31:59.519Z,15.20
2022-10-11T02:34:32.701Z,15.70
2022-10-11T02:37:24.624Z,16.65
2022-10-11T02:40:02.296Z,16.40
2022-10-11T02:42:37.330Z,17.20
2022-10-11T02:45:15.923Z,14.63
2022-10-11T02:47:43.515Z,12.05
2022-10-11T02:50:14.650Z,14.30
2022-10-11T02:52:41.483Z,17.10
2022-10-11T02:55:09.081Z,15.85
2022-10-11T02:57:35.777Z,17.33
2022-10-11T03:00:03.651Z,12.45
2022-10-11T03:02:30.402Z,17.17
2022-10-11T03:04:57.524Z,16.58
2022-10-11T03:07:24.169Z,14.75
2022-10-11T03:09:50.983Z,22.75
2022-10-11T03:12:17.677Z,13.32
2022-10-11T03:14:44.334Z,13.95
2022-10-11T03:17:34.431Z,15.52
2022-10-11T03:19:57.954Z,14.48
2022-10-11T03:22:24.582Z,19.38
2022-10-11T03:24:51.314Z,10.75
2022-10-11T03:27:17.959Z,14.43
2022-10-11T03:29:44.697Z,13.85
2022-10-11T03:32:11.370Z,16.73
2022-10-11T03:34:37.979Z,12.82
2022-10-11T03:37:04.812Z,14.38
2022-10-11T03:39:31.481Z,12.68
2022-10-11T03:41:58.173Z,13.50
2022-10-11T03:44:24.945Z,16.20
2022-10-11T03:46:51.623Z,16.80
2022-10-11T03:49:18.234Z,16.45
2022-10-11T03:51:44.862Z,15.57
2022-10-11T03:54:11.580Z,15.82
2022-10-11T03:56:38.261Z,17.10
2022-10-11T03:59:04.893Z,13.73
2022-10-11T04:01:35.761Z,17.08
2022-10-11T04:04:02.518Z,12.80
2022-10-11T04:06:29.346Z,19.60
2022-10-11T04:08:56.123Z,14.35
2022-10-11T04:11:22.877Z,15.05
2022-10-11T04:13:49.548Z,20.13
2022-10-11T04:16:16.571Z,17.05
2022-10-11T04:18:43.309Z,18.23
2022-10-11T04:21:10.108Z,17.13
2022-10-11T04:23:36.710Z,15.50
2022-10-11T04:26:08.944Z,15.18
2022-10-11T04:28:35.930Z,15.63
2022-10-11T04:31:04.985Z,14.27
2022-10-11T04:33:31.748Z,16.70
2022-10-11T04:35:58.426Z,15.70
2022-10-11T04:38:25.299Z,16.63
2022-10-11T04:40:52.090Z,13.52
2022-10-11T04:43:19.406Z,12.98
2022-10-11T04:45:46.175Z,12.20
2022-10-11T04:48:13.917Z,13.52
2022-10-11T04:50:40.613Z,13.65
2022-10-11T04:53:07.782Z,16.65
2022-10-11T04:55:34.405Z,14.27
2022-10-11T04:58:02.078Z,11.25
2022-10-11T05:00:28.806Z,11.90
2022-10-11T05:02:55.448Z,15.88
2022-10-11T05:05:22.105Z,15.82
2022-10-11T05:07:48.786Z,14.10
2022-10-11T05:10:15.595Z,14.55
2022-10-11T05:12:42.456Z,16.20
2022-10-11T05:15:09.578Z,15.13
2022-10-11T05:17:36.248Z,14.98
2022-10-11T05:20:03.227Z,15.48
2022-10-11T05:22:29.847Z,13.23
2022-10-11T05:24:56.477Z,14.07
2022-10-11T05:27:23.074Z,11.90
2022-10-11T05:29:49.770Z,13.88
2022-10-11T05:32:16.432Z,16.20
2022-10-11T05:34:43.229Z,11.60
2022-10-11T05:37:09.995Z,14.65
2022-10-11T05:39:37.077Z,16.23
2022-10-11T05:42:08.962Z,13.55
2022-10-11T05:44:36.514Z,17.15
2022-10-11T05:47:03.565Z,17.90
2022-10-11T05:49:30.556Z,12.57
2022-10-11T05:51:57.196Z,14.55
2022-10-11T05:54:23.887Z,17.33
2022-10-11T05:56:50.632Z,18.95
2022-10-11T05:59:17.239Z,15.68
2022-10-11T06:01:43.925Z,16.58
2022-10-11T06:04:11.691Z,10.43
2022-10-11T06:06:38.433Z,18.42
2022-10-11T06:09:05.222Z,15.50
2022-10-11T06:11:32.090Z,17.80
2022-10-11T06:13:58.778Z,12.40
2022-10-11T06:16:26.849Z,13.73
2022-10-11T06:18:54.926Z,15.73
2022-10-11T06:21:23.099Z,14.82
2022-10-11T06:23:52.948Z,15.40
2022-10-11T06:26:21.805Z,16.40
2022-10-11T06:28:48.583Z,19.15
2022-10-11T06:31:15.323Z,18.23
2022-10-11T06:33:42.107Z,17.58
2022-10-11T06:36:12.208Z,18.13
2022-10-11T06:38:44.494Z,18.33
2022-10-11T06:41:11.699Z,20.38
2022-10-11T06:43:38.410Z,18.08
2022-10-11T06:46:05.956Z,16.33
2022-10-11T06:48:32.992Z,18.25
2022-10-11T06:51:00.734Z,21.25
2022-10-11T06:53:27.897Z,21.60
2022-10-11T06:55:54.575Z,19.80
2022-10-11T06:58:21.390Z,21.08
2022-10-11T07:00:48.248Z,19.83
2022-10-11T07:03:14.961Z,16.98
2022-10-11T07:05:41.681Z,20.95
2022-10-11T07:08:08.375Z,24.27
2022-10-11T07:10:36.419Z,22.17
2022-10-11T07:13:03.137Z,23.40
2022-10-11T07:15:29.836Z,23.65
2022-10-11T07:17:56.767Z,18.10
2022-10-11T07:20:23.479Z,28.02
2022-10-11T07:22:50.302Z,24.95
2022-10-11T07:25:17.080Z,27.85
2022-10-11T07:27:43.728Z,26.08
2022-10-11T07:30:10.969Z,25.63
2022-10-11T07:32:37.618Z,24.38
2022-10-11T07:35:04.563Z,22.27
2022-10-11T07:37:31.452Z,26.48
2022-10-11T07:39:58.257Z,19.15
2022-10-11T07:42:25.122Z,26.77
2022-10-11T07:44:51.841Z,22.20
2022-10-11T07:47:18.532Z,18.05
2022-10-11T07:49:45.300Z,23.92
2022-10-11T07:52:39.159Z,25.00
2022-10-11T07:55:06.676Z,24.45
2022-10-11T07:57:33.338Z,24.30
2022-10-11T07:59:59.944Z,19.80
2022-10-11T08:02:26.642Z,26.20
2022-10-11T08:04:53.300Z,21.88
2022-10-11T08:07:19.926Z,23.38
2022-10-11T08:09:46.560Z,24.95
2022-10-11T08:12:13.243Z,23.95
2022-10-11T08:14:41.486Z,23.33
2022-10-11T08:17:08.681Z,21.60
2022-10-11T08:19:35.389Z,18.50
2022-10-11T08:22:02.191Z,15.45
2022-10-11T08:24:28.902Z,21.48
2022-10-11T08:26:55.647Z,22.58
2022-10-11T08:29:22.370Z,14.80
2022-10-11T08:31:49.165Z,17.80
2022-10-11T08:34:15.925Z,24.52
2022-10-11T08:36:42.683Z,17.60
2022-10-11T08:39:09.334Z,19.92
2022-10-11T08:41:55.749Z,18.50
2022-10-11T08:45:10.119Z,15.77
2022-10-11T08:47:39.606Z,28.83
2022-10-11T08:50:15.519Z,18.67
2022-10-11T08:52:54.435Z,21.73
2022-10-11T08:55:41.823Z,20.42
2022-10-11T08:58:15.183Z,19.40
2022-10-11T09:00:44.433Z,19.10
2022-10-11T09:03:35.582Z,20.05
2022-10-11T09:06:36.767Z,16.83
2022-10-11T09:09:15.556Z,16.02
2022-10-11T09:11:51.688Z,22.65
2022-10-11T09:14:39.181Z,17.85
2022-10-11T09:17:28.846Z,17.48
2022-10-11T09:20:44.532Z,15.95
2022-10-11T09:23:26.401Z,20.52
2022-10-11T09:26:21.070Z,20.65
2022-10-11T09:29:02.158Z,20.98
2022-10-11T09:31:29.895Z,20.70
2022-10-11T09:33:59.581Z,18.48
2022-10-11T09:36:30.583Z,13.25
2022-10-11T09:39:24.612Z,18.00
2022-10-11T09:42:05.364Z,17.80
2022-10-11T09:44:51.903Z,17.33
2022-10-11T09:47:27.387Z,21.13
2022-10-11T09:49:54.091Z,14.93
2022-10-11T09:52:22.964Z,18.27
2022-10-11T09:54:54.053Z,20.00
2022-10-11T09:57:27.295Z,20.75
2022-10-11T10:00:22.547Z,14.45
2022-10-11T10:02:51.641Z,19.05
2022-10-11T10:05:23.665Z,13.77
2022-10-11T10:08:09.202Z,12.20
2022-10-11T10:10:40.840Z,11.98
2022-10-11T10:16:00.431Z,13.75
2022-10-11T10:18:38.915Z,14.10
2022-10-11T10:21:10.746Z,13.63
2022-10-11T10:23:37.823Z,14.10
2022-10-11T10:26:16.005Z,13.88
2022-10-11T10:28:55.111Z,14.88
2022-10-11T10:32:12.454Z,14.30
2022-10-11T10:34:36.128Z,14.18
2022-10-11T10:37:15.541Z,11.10
2022-10-11T10:39:49.538Z,11.68
2022-10-11T10:42:20.547Z,12.98
2022-10-11T10:44:56.857Z,14.60
2022-10-11T10:47:26.633Z,17.30
2022-10-11T10:50:24.232Z,12.40
2022-10-11T10:53:12.273Z,13.95
2022-10-11T10:55:42.165Z,14.68
2022-10-11T10:58:25.180Z,10.23
2022-10-11T11:01:23.213Z,9.45
2022-10-11T11:04:14.265Z,9.10
2022-10-11T11:06:50.824Z,7.97
2022-10-11T11:09:42.152Z,11.85
2022-10-11T11:12:49.139Z,11.45
2022-10-11T11:15:27.165Z,7.88
2022-10-11T11:18:03.707Z,10.65
2022-10-11T11:20:39.699Z,11.23
2022-10-11T11:23:27.169Z,10.43
2022-10-11T11:26:10.745Z,7.03
2022-10-11T11:28:52.298Z,9.52
2022-10-11T11:31:47.615Z,14.07
2022-10-11T11:34:25.685Z,13.90
2022-10-11T11:37:04.371Z,11.48
2022-10-11T11:39:44.509Z,14.02
2022-10-11T11:42:26.565Z,15.55
2022-10-11T11:44:53.961Z,13.55
2022-10-11T11:47:29.232Z,10.13
2022-10-11T11:50:15.170Z,14.70
2022-10-11T11:52:47.508Z,14.68
2022-10-11T11:55:43.304Z,21.50
2022-10-11T11:58:28.162Z,11.00
2022-10-11T12:01:18.342Z,13.07
2022-10-11T12:03:50.747Z,8.57
2022-10-11T12:06:28.708Z,7.35
2022-10-11T12:09:21.479Z,12.15
2022-10-11T12:12:01.206Z,15.27
2022-10-11T12:14:27.895Z,11.27
2022-10-11T12:17:08.610Z,10.73
2022-10-11T12:19:37.211Z,8.50
2022-10-11T12:22:53.259Z,12.40
2022-10-11T12:25:22.529Z,12.00
2022-10-11T12:27:57.084Z,11.77
2022-10-11T12:30:42.437Z,12.02
2022-10-11T12:33:23.984Z,17.55
2022-10-11T12:35:53.359Z,17.35
2022-10-11T12:38:21.916Z,11.95
2022-10-11T12:40:56.119Z,9.80
2022-10-11T12:43:27.565Z,11.00
2022-10-11T12:45:54.349Z,15.10
2022-10-11T12:48:41.010Z,13.15
2022-10-11T12:51:22.758Z,15.43
2022-10-11T12:54:21.925Z,13.20
2022-10-11T12:57:00.417Z,9.80
2022-10-11T12:59:27.400Z,10.73
2022-10-11T13:01:57.906Z,13.55
2022-10-11T13:04:33.076Z,13.45
2022-10-11T13:07:12.365Z,12.85
2022-10-11T13:09:44.175Z,15.13
2022-10-11T13:12:19.741Z,15.35
2022-10-11T13:14:59.593Z,14.40
2022-10-11T13:17:37.411Z,14.38
2022-10-11T13:20:26.601Z,14.63
2022-10-11T13:22:55.071Z,14.95
2022-10-11T13:25:35.877Z,15.35
2022-10-11T13:28:02.980Z,13.40
2022-10-11T13:30:34.211Z,12.10
2022-10-11T13:33:05.744Z,15.45
2022-10-11T13:35:38.035Z,11.32
2022-10-11T13:38:08.585Z,8.35
2022-10-11T13:40:37.421Z,15.20
2022-10-11T13:43:05.614Z,13.65
2022-10-11T13:45:35.093Z,9.00
2022-10-11T13:48:01.941Z,14.18
2022-10-11T13:50:35.116Z,12.23
2022-10-11T13:53:03.399Z,11.00
2022-10-11T13:55:30.006Z,14.73
2022-10-11T13:57:59.210Z,11.55
2022-10-11T14:00:30.662Z,12.70
2022-10-11T14:03:01.749Z,11.98
2022-10-11T14:05:30.564Z,11.50
2022-10-11T14:08:00.507Z,10.40
2022-10-11T14:10:27.713Z,9.52
2022-10-11T14:13:20.370Z,10.02
2022-10-11T14:15:57.795Z,7.60
2022-10-11T14:19:11.295Z,12.35
2022-10-11T14:21:46.399Z,14.45
2022-10-11T14:24:14.445Z,8.27
2022-10-11T14:26:47.631Z,12.18
2022-10-11T14:29:35.198Z,11.18
2022-10-11T14:32:03.867Z,7.13
2022-10-11T14:34:31.503Z,9.88
2022-10-11T14:36:58.535Z,13.13
2022-10-11T14:39:27.869Z,10.07
2022-10-11T14:41:55.059Z,10.57
2022-10-11T14:44:22.318Z,14.80
2022-10-11T14:46:50.895Z,8.43
2022-10-11T14:49:24.899Z,10.30
2022-10-11T14:51:52.843Z,12.18
2022-10-11T14:54:23.988Z,17.85
2022-10-11T14:56:52.673Z,12.82
2022-10-11T14:59:22.612Z,15.30
2022-10-11T15:01:51.906Z,10.50
2022-10-11T15:04:22.677Z,9.95
2022-10-11T15:06:50.371Z,12.18
2022-10-11T15:09:20.646Z,10.85
2022-10-11T15:11:49.825Z,9.68
2022-10-11T15:14:16.611Z,12.45
2022-10-11T15:16:43.773Z,11.43
2022-10-11T15:19:16.131Z,13.95
2022-10-11T15:21:43.319Z,12.80
2022-10-11T15:24:10.177Z,9.32
2022-10-11T15:26:36.989Z,10.77
2022-10-11T15:29:04.187Z,12.15
2022-10-11T15:31:31.003Z,9.50
2022-10-11T15:34:01.802Z,7.15
2022-10-11T15:36:29.498Z,11.30
2022-10-11T15:38:56.367Z,11.75
2022-10-11T15:41:23.880Z,11.88
2022-10-11T15:43:50.958Z,10.52
2022-10-11T15:46:22.084Z,9.32
2022-10-11T15:48:50.384Z,15.07
2022-10-11T15:51:17.464Z,10.80
2022-10-11T15:53:44.249Z,16.30
2022-10-11T15:56:16.322Z,12.05
2022-10-11T15:58:43.346Z,10.43
2022-10-11T16:01:17.751Z,9.15
2022-10-11T16:03:45.493Z,11.07
2022-10-11T16:06:13.332Z,11.45
2022-10-11T16:08:40.604Z,10.88
2022-10-11T16:11:08.887Z,9.15
2022-10-11T16:13:35.872Z,8.50
2022-10-11T16:16:05.439Z,18.63
2022-10-11T16:18:35.373Z,15.32
2022-10-11T16:21:07.937Z,8.88
2022-10-11T16:23:35.165Z,9.82
2022-10-11T16:26:07.688Z,12.20
2022-10-11T16:28:35.647Z,12.27
2022-10-11T16:31:08.003Z,11.68
2022-10-11T16:33:34.780Z,13.30
2022-10-11T16:36:25.235Z,10.05
2022-10-11T16:38:52.054Z,11.02
2022-10-11T16:41:19.852Z,10.88
2022-10-11T16:43:51.595Z,8.88
2022-10-11T16:48:45.753Z,12.10
2022-10-11T16:51:12.493Z,10.35
2022-10-11T16:53:39.239Z,14.38
2022-10-11T16:56:10.283Z,12.25
2022-10-11T16:58:37.464Z,13.93
2022-10-11T17:01:08.559Z,13.07
2022-10-11T17:03:35.260Z,13.23
2022-10-11T17:06:02.214Z,15.52
2022-10-11T17:08:29.030Z,15.27
2022-10-11T17:10:57.878Z,16.77
2022-10-11T17:13:24.675Z,16.60
2022-10-11T17:15:51.412Z,12.80
2022-10-11T17:18:18.607Z,17.33
2022-10-11T17:20:45.441Z,13.98
2022-10-11T17:23:12.406Z,8.55
2022-10-11T17:25:46.862Z,15.98
2022-10-11T17:28:13.724Z,10.55
2022-10-11T17:30:43.433Z,9.60
2022-10-11T17:33:10.182Z,11.70
2022-10-11T17:35:36.810Z,18.95
2022-10-11T17:38:06.442Z,13.93
2022-10-11T17:40:33.503Z,12.57
2022-10-11T17:43:00.182Z,15.98
2022-10-11T17:45:26.845Z,16.38
2022-10-11T17:47:53.502Z,16.88
2022-10-11T17:50:20.171Z,24.25
2022-10-11T17:52:47.126Z,25.08
2022-10-11T17:55:13.790Z,32.55
2022-10-11T17:57:40.667Z,19.38
2022-10-11T18:00:08.278Z,30.92
2022-10-11T18:02:34.990Z,27.13
2022-10-11T18:05:01.680Z,26.08
2022-10-11T18:07:28.474Z,29.48
2022-10-11T18:09:55.239Z,34.80
2022-10-11T18:12:22.012Z,29.42
2022-10-11T18:14:50.888Z,30.90
2022-10-11T18:17:18.271Z,25.20
2022-10-11T18:19:45.019Z,25.88
2022-10-11T18:22:11.812Z,29.23
2022-10-11T18:24:39.050Z,34.28
2022-10-11T18:27:05.914Z,24.30
2022-10-11T18:29:32.604Z,29.55
2022-10-11T18:31:59.279Z,27.05
2022-10-11T18:34:25.921Z,34.78
2022-10-11T18:36:52.679Z,33.10
2022-10-11T18:39:21.704Z,31.73
2022-10-11T18:41:48.716Z,37.00
2022-10-11T18:44:15.957Z,33.63
2022-10-11T18:46:43.469Z,32.72
2022-10-11T18:49:10.465Z,37.15
2022-10-11T18:51:39.484Z,29.02
2022-10-11T18:54:08.290Z,30.92
2022-10-11T18:56:36.752Z,26.77
2022-10-11T18:59:04.425Z,25.27
2022-10-11T19:01:38.145Z,21.45
2022-10-11T19:04:06.588Z,31.02
2022-10-11T19:06:36.800Z,30.83
2022-10-11T19:09:11.926Z,31.02
2022-10-11T19:11:39.368Z,31.27
2022-10-11T19:14:07.484Z,27.58
2022-10-11T19:16:37.709Z,26.77
2022-10-11T19:19:05.042Z,25.70
2022-10-11T19:21:31.922Z,28.77
2022-10-11T19:23:58.703Z,26.10
2022-10-11T19:26:31.840Z,31.27
2022-10-11T19:29:06.804Z,30.13
2022-10-11T19:31:35.567Z,30.30
2022-10-11T19:34:02.751Z,26.85
2022-10-11T19:36:34.052Z,28.13
2022-10-11T19:39:04.636Z,25.75
2022-10-11T19:41:31.783Z,29.90
2022-10-11T19:43:58.665Z,26.13
2022-10-11T19:49:15.662Z,20.15
2022-10-11T19:51:42.413Z,23.98
2022-10-11T19:54:12.278Z,20.63
2022-10-11T19:56:39.143Z,20.77
2022-10-11T19:59:08.588Z,27.67
2022-10-11T20:01:36.511Z,24.10
2022-10-11T20:04:08.662Z,24.92
2022-10-11T20:06:39.474Z,23.73
2022-10-11T20:09:28.525Z,25.45
2022-10-11T20:11:54.559Z,27.02
2022-10-11T20:14:21.322Z,25.25
2022-10-11T20:16:50.149Z,29.05
2022-10-11T20:19:17.287Z,27.88
2022-10-11T20:21:44.865Z,29.02
2022-10-11T20:24:11.648Z,22.77
2022-10-11T20:26:39.188Z,28.05
2022-10-11T20:29:05.997Z,22.73
2022-10-11T20:31:37.894Z,28.05
2022-10-11T20:34:06.953Z,25.45
2022-10-11T20:36:35.773Z,28.20
2022-10-11T20:39:02.746Z,29.85
2022-10-11T20:41:32.894Z,24.42
2022-10-11T20:44:01.302Z,28.02
2022-10-11T20:46:31.380Z,23.35
2022-10-11T20:49:04.023Z,24.25
2022-10-11T20:51:32.843Z,30.88
2022-10-11T20:54:00.589Z,33.30
2022-10-11T20:56:27.945Z,22.58
2022-10-11T20:58:56.066Z,25.73
2022-10-11T21:01:28.702Z,25.15
2022-10-11T21:03:58.953Z,29.83
2022-10-11T21:06:26.541Z,27.52
2022-10-11T21:08:55.780Z,24.05
2022-10-11T21:11:26.523Z,29.60
2022-10-11T21:13:57.925Z,26.80
2022-10-11T21:16:25.547Z,28.73
2022-10-11T21:18:54.636Z,33.67
2022-10-11T21:21:23.351Z,32.75
2022-10-11T21:23:53.865Z,38.30
2022-10-11T21:26:20.654Z,28.98
2022-10-11T21:28:47.689Z,35.20
2022-10-11T21:31:16.862Z,33.03
2022-10-11T21:33:44.525Z,29.08
2022-10-11T21:36:22.195Z,30.45
2022-10-11T21:38:50.162Z,27.10
2022-10-11T21:41:19.685Z,30.15
2022-10-11T21:43:47.241Z,28.63
2022-10-11T21:46:54.164Z,40.90
2022-10-11T21:49:16.860Z,29.23
2022-10-11T21:51:43.737Z,30.17
2022-10-11T21:54:10.721Z,31.25
2022-10-11T21:56:37.480Z,28.02
2022-10-11T21:59:06.632Z,35.60
2022-10-11T22:01:36.829Z,31.80
2022-10-11T22:04:04.872Z,25.90
2022-10-11T22:06:31.747Z,31.55
2022-10-11T22:08:58.358Z,28.67
2022-10-11T22:11:25.187Z,32.58
2022-10-11T22:13:51.917Z,37.80
2022-10-11T22:16:19.017Z,30.75
2022-10-11T22:18:45.770Z,32.15
2022-10-11T22:21:14.012Z,31.70
2022-10-11T22:23:42.970Z,35.17
2022-10-11T22:26:12.808Z,31.05
2022-10-11T22:28:40.234Z,34.65
2022-10-11T22:31:08.171Z,31.05
2022-10-11T22:33:35.747Z,32.65
2022-10-11T22:36:04.960Z,39.95
2022-10-11T22:38:31.801Z,40.35
2022-10-11T22:40:58.952Z,36.03
2022-10-11T22:43:25.814Z,34.88
2022-10-11T22:45:52.540Z,35.88
2022-10-11T22:48:19.430Z,32.22
2022-10-11T22:50:46.656Z,30.55
2022-10-11T22:53:14.429Z,34.55
2022-10-11T22:55:41.630Z,37.40
2022-10-11T22:58:08.985Z,33.60
2022-10-11T23:00:35.862Z,34.55
2022-10-11T23:03:02.567Z,32.63
2022-10-11T23:05:29.296Z,35.47
2022-10-11T23:07:55.973Z,34.67
2022-10-11T23:10:22.727Z,33.10
2022-10-11T23:12:49.427Z,34.00
2022-10-11T23:15:16.330Z,36.05
2022-10-11T23:17:43.084Z,34.03
2022-10-11T23:20:10.365Z,35.65
2022-10-11T23:22:37.376Z,32.15
2022-10-11T23:25:05.043Z,34.60
2022-10-11T23:27:31.764Z,36.83
2022-10-11T23:29:58.464Z,35.83
2022-10-11T23:32:25.324Z,36.17
2022-10-11T23:34:51.967Z,35.58
2022-10-11T23:37:18.617Z,31.75
2022-10-11T23:39:45.489Z,34.03
2022-10-11T23:42:12.152Z,37.20
2022-10-11T23:44:38.990Z,31.92
2022-10-11T23:47:05.740Z,35.40
2022-10-11T23:49:32.455Z,31.92
2022-10-11T23:51:59.161Z,34.35
2022-10-11T23:54:26.058Z,30.27
2022-10-11T23:56:53.038Z,29.30
2022-10-11T23:59:19.727Z,28.15
